RoSS Sea — WDE3122 — position and weather

sailwx.info

Track history (hours):
 
Tides and Currents Weather Stations Pressure Air Temp Water Temp Dewpoint Dewpoint Depression Visibility Wind Speed Wind Dir Waves Ship Positions

RoSS Sea

Owner: Kirby Inland Marine, LP, Houston, TX. More information available from US FCC via Universal Licensing System and Coast Guard Vessel Documentation Center.

Last reported at 2017-Jan-20 01:28 UTC. Time now 2017-Jan-20 01:38 UTC.
Position N 40°39' W 074°10'.

Length 30 m; draft 5 m.

Type: Towing. MMSI: 367334360.

Date/timePositionNaut miles runAvg speedWind from/ knotsBaromVisibWave heightAir tempDewpointWater temp
2017-Jan-20 01:28N 40°39' W 074°10'0 0.0
2017-Jan-20 00:28N 40°39' W 074°10'0 0.0
2017-Jan-19 23:28N 40°39' W 074°10'0 0.0
2017-Jan-19 22:25N 40°39' W 074°10'0 0.0
2017-Jan-19 21:22N 40°39' W 074°10'0 0.0
2017-Jan-19 20:28N 40°39' W 074°10'0 0.0
2017-Jan-19 18:22N 40°39' W 074°10'0 0.1
2017-Jan-19 17:31N 40°39' W 074°10'0 0.1
2017-Jan-19 16:33N 40°39' W 074°10'0 0.0
2017-Jan-19 15:34N 40°39' W 074°10'0 0.0
2017-Jan-19 14:34N 40°39' W 074°10'1 1.0
2017-Jan-19 13:33N 40°39' W 074°11'7 4.8
2017-Jan-19 12:10N 40°33' W 074°15'4 6.2
2017-Jan-19 11:30N 40°36' W 074°12'5 5.0
2017-Jan-19 10:33N 40°39' W 074°07'2 2.2
2017-Jan-19 09:32N 40°39' W 074°04'0 0.1
2017-Jan-19 08:33N 40°39' W 074°04'5 4.4
2017-Jan-19 07:31N 40°39' W 074°10'0 0.0
2017-Jan-19 06:31N 40°39' W 074°10'0 0.0
2017-Jan-19 05:31N 40°39' W 074°10'0 0.0
2017-Jan-19 04:31N 40°39' W 074°10'0 0.0
2017-Jan-19 03:31N 40°39' W 074°10'0 0.0
2017-Jan-19 02:31N 40°39' W 074°10'0 0.0
2017-Jan-19 01:31N 40°39' W 074°10'0 0.0
2017-Jan-19 00:31N 40°39' W 074°10'0 0.0
2017-Jan-18 23:31N 40°39' W 074°10'0 0.0
2017-Jan-18 22:31N 40°39' W 074°10'0 0.0
2017-Jan-18 21:33N 40°39' W 074°10'2 2.5
2017-Jan-18 20:33N 40°39' W 074°07'1 0.6
2017-Jan-18 19:33N 40°39' W 074°07'1 1.2
2017-Jan-18 18:33N 40°39' W 074°09'1 0.6
2017-Jan-18 17:31N 40°39' W 074°10'0 0.0
2017-Jan-18 16:31N 40°39' W 074°10'0 0.0
2017-Jan-18 15:31N 40°38' W 074°10'0 0.0
2017-Jan-18 14:28N 40°38' W 074°10'0 0.0
2017-Jan-18 13:33N 40°38' W 074°10'0 0.0
2017-Jan-18 12:34N 40°38' W 074°10'1 0.6
2017-Jan-18 11:33N 40°38' W 074°09'5 5.0
2017-Jan-18 10:33N 40°40' W 074°03'1110.8
2017-Jan-18 09:33N 40°48' W 073°53'5 0.2
2017-Jan-17 07:32N 40°50' W 073°47'7 6.6
2017-Jan-17 06:32N 40°47' W 073°55'7 6.9
2017-Jan-17 05:34N 40°42' W 074°00'6 5.4
2017-Jan-17 04:27N 40°39' W 074°07'0 0.1
2017-Jan-17 03:33N 40°39' W 074°07'2 2.2
2017-Jan-17 02:33N 40°39' W 074°10'0 0.0
2017-Jan-17 01:30N 40°39' W 074°10'2 2.0
2017-Jan-17 00:33N 40°39' W 074°07'4 3.9
2017-Jan-16 23:31N 40°40' W 074°02'0 0.0
2017-Jan-16 22:31N 40°40' W 074°02'0 0.0
2017-Jan-16 21:31N 40°40' W 074°02'0 0.0
2017-Jan-16 20:31N 40°40' W 074°02'0 0.0
2017-Jan-16 19:31N 40°40' W 074°02'0 0.0
2017-Jan-16 18:31N 40°40' W 074°02'0 0.2
2017-Jan-16 17:31N 40°40' W 074°02'0 0.0
2017-Jan-16 16:31N 40°40' W 074°02'0 0.0
2017-Jan-16 15:31N 40°40' W 074°02'0 0.0
2017-Jan-16 14:33N 40°40' W 074°02'3 3.3
2017-Jan-16 13:33N 40°39' W 074°06'5 4.7
2017-Jan-16 12:33N 40°37' W 074°12'2 1.7
2017-Jan-16 11:21N 40°35' W 074°13'0 0.0
2017-Jan-16 10:33N 40°35' W 074°13'1 0.1
2017-Jan-16 05:25N 40°36' W 074°12'0 0.0
2017-Jan-16 01:21N 40°36' W 074°12'1 0.4
2017-Jan-15 23:33N 40°35' W 074°13'5 4.8
2017-Jan-15 22:33N 40°39' W 074°08'0 0.4
2017-Jan-15 21:33N 40°39' W 074°08'2 1.5
2017-Jan-15 20:34N 40°39' W 074°10'0 0.0
2017-Jan-15 19:34N 40°39' W 074°10'0 0.0
2017-Jan-15 18:34N 40°39' W 074°10'0 0.0
2017-Jan-15 17:34N 40°39' W 074°10'0 0.0
2017-Jan-15 16:31N 40°39' W 074°10'0 0.0
2017-Jan-15 15:34N 40°39' W 074°10'0 0.0
2017-Jan-15 14:34N 40°39' W 074°10'0 0.0
2017-Jan-15 13:34N 40°39' W 074°10'0 0.0
2017-Jan-15 12:22N 40°39' W 074°10'0 0.0
2017-Jan-15 11:34N 40°39' W 074°10'0 0.0
2017-Jan-15 10:34N 40°39' W 074°10'0 0.0
2017-Jan-15 09:27N 40°39' W 074°10'0 0.0
2017-Jan-15 08:33N 40°39' W 074°10'0 0.0
2017-Jan-15 07:34N 40°39' W 074°10'0 0.0
2017-Jan-15 06:28N 40°39' W 074°10'0 0.0
2017-Jan-15 05:34N 40°39' W 074°10'0 0.0
2017-Jan-15 04:34N 40°39' W 074°10'0 0.0
2017-Jan-15 03:34N 40°39' W 074°10'0 0.0
2017-Jan-15 02:30N 40°39' W 074°10'0 0.0
2017-Jan-15 01:15N 40°39' W 074°10'0 0.0
2017-Jan-15 00:30N 40°39' W 074°10'0 0.0
2017-Jan-14 23:33N 40°39' W 074°10'0 0.0
2017-Jan-14 22:33N 40°39' W 074°10'0 0.0
2017-Jan-14 21:33N 40°39' W 074°10'0 0.0
2017-Jan-14 20:33N 40°39' W 074°10'0 0.0
2017-Jan-14 19:33N 40°39' W 074°10'0 0.0
2017-Jan-14 18:33N 40°39' W 074°10'0 0.0
2017-Jan-14 17:30N 40°39' W 074°10'0 0.0
2017-Jan-14 16:33N 40°39' W 074°10'0 0.0
2017-Jan-14 15:33N 40°39' W 074°10'0 0.0
2017-Jan-14 14:33N 40°39' W 074°10'0 0.1
2017-Jan-14 13:33N 40°39' W 074°10'0 0.1
2017-Jan-14 12:31N 40°39' W 074°10'0 0.0
2017-Jan-14 11:31N 40°39' W 074°10'0 0.0
2017-Jan-14 10:31N 40°39' W 074°10'4 4.5
2017-Jan-14 09:33N 40°39' W 074°04'5 5.1
2017-Jan-14 08:33N 40°39' W 074°11'1 0.0
2017-Jan-13 19:31N 40°39' W 074°10'5 4.9
2017-Jan-13 18:34N 40°39' W 074°04'0 0.0
2017-Jan-13 17:32N 40°39' W 074°04'0 0.0
2017-Jan-13 16:32N 40°39' W 074°04'0 0.0
2017-Jan-13 15:32N 40°39' W 074°04'0 0.0
2017-Jan-13 14:32N 40°39' W 074°04'0 0.4
2017-Jan-13 13:33N 40°39' W 074°05'1 1.0
2017-Jan-13 12:31N 40°39' W 074°06'0 0.0
2017-Jan-13 11:32N 40°39' W 074°06'0 0.0
2017-Jan-13 10:32N 40°39' W 074°06'0 0.0
2017-Jan-13 09:32N 40°39' W 074°06'0 0.0
2017-Jan-13 08:32N 40°39' W 074°06'0 0.0
2017-Jan-13 07:32N 40°39' W 074°06'0 0.0
2017-Jan-13 06:29N 40°39' W 074°06'0 0.0
2017-Jan-13 05:32N 40°39' W 074°06'0 0.0
2017-Jan-13 04:32N 40°39' W 074°06'1 0.7
2017-Jan-13 03:31N 40°39' W 074°05'4 4.3
2017-Jan-13 02:33N 40°41' W 074°01'6 6.1
2017-Jan-13 01:31N 40°47' W 073°56'7 0.3
2017-Jan-12 02:13N 40°49' W 073°47'5 7.2
2017-Jan-12 01:33N 40°48' W 073°53'8 8.4
2017-Jan-12 00:33N 40°42' W 074°00'5 4.6
2017-Jan-11 23:33N 40°38' W 074°04'1 1.2
2017-Jan-11 22:29N 40°39' W 074°05'3 3.4
2017-Jan-11 21:33N 40°38' W 074°09'0 0.3
2017-Jan-11 20:06N 40°39' W 074°10'0 0.0
2017-Jan-11 19:30N 40°39' W 074°10'0 0.0
2017-Jan-11 18:30N 40°39' W 074°10'0 0.0
2017-Jan-11 17:12N 40°39' W 074°10'0 0.0
2017-Jan-11 16:30N 40°39' W 074°10'0 0.0
2017-Jan-11 15:33N 40°39' W 074°10'0 0.0
2017-Jan-11 14:24N 40°39' W 074°10'0 0.0
2017-Jan-11 13:33N 40°39' W 074°10'0 0.0
2017-Jan-11 12:33N 40°39' W 074°10'0 0.0
2017-Jan-11 11:33N 40°39' W 074°10'0 0.0
2017-Jan-11 10:33N 40°39' W 074°10'0 0.0
2017-Jan-11 09:33N 40°39' W 074°10'0 0.0
2017-Jan-11 08:33N 40°39' W 074°10'0 0.0
2017-Jan-11 07:33N 40°39' W 074°10'0 0.0
2017-Jan-11 06:33N 40°39' W 074°10'2 2.2
2017-Jan-11 05:33N 40°39' W 074°07'1 0.9
2017-Jan-11 04:32N 40°39' W 074°06'0 0.0
2017-Jan-11 03:32N 40°39' W 074°06'2 2.3
2017-Jan-11 02:33N 40°39' W 074°09'0 0.1
2017-Jan-11 01:33N 40°39' W 074°09'2 2.1
2017-Jan-11 00:32N 40°39' W 074°06'0 0.0
2017-Jan-10 23:32N 40°39' W 074°06'0 0.0
2017-Jan-10 22:32N 40°39' W 074°06'0 0.0
2017-Jan-10 21:32N 40°39' W 074°06'0 0.0
2017-Jan-10 20:32N 40°39' W 074°06'1 1.4
2017-Jan-10 19:34N 40°40' W 074°04'0 0.0
2017-Jan-10 18:31N 40°40' W 074°04'0 0.0
2017-Jan-10 17:33N 40°40' W 074°04'0 0.0
2017-Jan-10 16:30N 40°40' W 074°04'0 0.0
2017-Jan-10 15:33N 40°40' W 074°04'0 0.0
2017-Jan-10 14:33N 40°40' W 074°04'0 0.0
2017-Jan-10 13:26N 40°40' W 074°04'0 0.0
2017-Jan-10 12:33N 40°40' W 074°04'0 0.0
2017-Jan-10 11:30N 40°40' W 074°04'0 0.0
2017-Jan-10 10:30N 40°40' W 074°04'0 0.0
2017-Jan-10 09:33N 40°40' W 074°04'0 0.0
2017-Jan-10 08:33N 40°40' W 074°04'0 0.0
2017-Jan-10 07:33N 40°40' W 074°04'0 0.0
2017-Jan-10 06:33N 40°40' W 074°04'0 0.0
2017-Jan-10 05:24N 40°40' W 074°04'0 0.0
2017-Jan-10 04:33N 40°40' W 074°04'0 0.0
2017-Jan-10 03:33N 40°40' W 074°04'0 0.0
2017-Jan-10 02:33N 40°40' W 074°04'  
Track history (hours):
 
Tides and Currents Weather Stations Pressure Air Temp Water Temp Dewpoint Dewpoint Depression Visibility Wind Speed Wind Dir Waves Ship Positions

RoSS Sea

Owner: Kirby Inland Marine, LP, Houston, TX. More information available from US FCC via Universal Licensing System and Coast Guard Vessel Documentation Center.

Last reported at 2017-Jan-20 01:28 UTC. Time now 2017-Jan-20 01:38 UTC.
Position N 40°39' W 074°10'.

Length 30 m; draft 5 m.

Type: Towing. MMSI: 367334360.

Date/timePositionNaut miles runAvg speedWind from/ knotsBaromVisibWave heightAir tempDewpointWater temp
2017-Jan-20 01:28N 40°39' W 074°10'0 0.0
2017-Jan-20 00:28N 40°39' W 074°10'0 0.0
2017-Jan-19 23:28N 40°39' W 074°10'0 0.0
2017-Jan-19 22:25N 40°39' W 074°10'0 0.0
2017-Jan-19 21:22N 40°39' W 074°10'0 0.0
2017-Jan-19 20:28N 40°39' W 074°10'0 0.0
2017-Jan-19 18:22N 40°39' W 074°10'0 0.1
2017-Jan-19 17:31N 40°39' W 074°10'0 0.1
2017-Jan-19 16:33N 40°39' W 074°10'0 0.0
2017-Jan-19 15:34N 40°39' W 074°10'0 0.0
2017-Jan-19 14:34N 40°39' W 074°10'1 1.0
2017-Jan-19 13:33N 40°39' W 074°11'7 4.8
2017-Jan-19 12:10N 40°33' W 074°15'4 6.2
2017-Jan-19 11:30N 40°36' W 074°12'5 5.0
2017-Jan-19 10:33N 40°39' W 074°07'2 2.2
2017-Jan-19 09:32N 40°39' W 074°04'0 0.1
2017-Jan-19 08:33N 40°39' W 074°04'5 4.4
2017-Jan-19 07:31N 40°39' W 074°10'0 0.0
2017-Jan-19 06:31N 40°39' W 074°10'0 0.0
2017-Jan-19 05:31N 40°39' W 074°10'0 0.0
2017-Jan-19 04:31N 40°39' W 074°10'0 0.0
2017-Jan-19 03:31N 40°39' W 074°10'0 0.0
2017-Jan-19 02:31N 40°39' W 074°10'0 0.0
2017-Jan-19 01:31N 40°39' W 074°10'0 0.0
2017-Jan-19 00:31N 40°39' W 074°10'0 0.0
2017-Jan-18 23:31N 40°39' W 074°10'0 0.0
2017-Jan-18 22:31N 40°39' W 074°10'0 0.0
2017-Jan-18 21:33N 40°39' W 074°10'2 2.5
2017-Jan-18 20:33N 40°39' W 074°07'1 0.6
2017-Jan-18 19:33N 40°39' W 074°07'1 1.2
2017-Jan-18 18:33N 40°39' W 074°09'1 0.6
2017-Jan-18 17:31N 40°39' W 074°10'0 0.0
2017-Jan-18 16:31N 40°39' W 074°10'0 0.0
2017-Jan-18 15:31N 40°38' W 074°10'0 0.0
2017-Jan-18 14:28N 40°38' W 074°10'0 0.0
2017-Jan-18 13:33N 40°38' W 074°10'0 0.0
2017-Jan-18 12:34N 40°38' W 074°10'1 0.6
2017-Jan-18 11:33N 40°38' W 074°09'5 5.0
2017-Jan-18 10:33N 40°40' W 074°03'1110.8
2017-Jan-18 09:33N 40°48' W 073°53'5 0.2
2017-Jan-17 07:32N 40°50' W 073°47'7 6.6
2017-Jan-17 06:32N 40°47' W 073°55'7 6.9
2017-Jan-17 05:34N 40°42' W 074°00'6 5.4
2017-Jan-17 04:27N 40°39' W 074°07'0 0.1
2017-Jan-17 03:33N 40°39' W 074°07'2 2.2
2017-Jan-17 02:33N 40°39' W 074°10'0 0.0
2017-Jan-17 01:30N 40°39' W 074°10'2 2.0
2017-Jan-17 00:33N 40°39' W 074°07'4 3.9
2017-Jan-16 23:31N 40°40' W 074°02'0 0.0
2017-Jan-16 22:31N 40°40' W 074°02'0 0.0
2017-Jan-16 21:31N 40°40' W 074°02'0 0.0
2017-Jan-16 20:31N 40°40' W 074°02'0 0.0
2017-Jan-16 19:31N 40°40' W 074°02'0 0.0
2017-Jan-16 18:31N 40°40' W 074°02'0 0.2
2017-Jan-16 17:31N 40°40' W 074°02'0 0.0
2017-Jan-16 16:31N 40°40' W 074°02'0 0.0
2017-Jan-16 15:31N 40°40' W 074°02'0 0.0
2017-Jan-16 14:33N 40°40' W 074°02'3 3.3
2017-Jan-16 13:33N 40°39' W 074°06'5 4.7
2017-Jan-16 12:33N 40°37' W 074°12'2 1.7
2017-Jan-16 11:21N 40°35' W 074°13'0 0.0
2017-Jan-16 10:33N 40°35' W 074°13'1 0.1
2017-Jan-16 05:25N 40°36' W 074°12'0 0.0
2017-Jan-16 01:21N 40°36' W 074°12'1 0.4
2017-Jan-15 23:33N 40°35' W 074°13'5 4.8
2017-Jan-15 22:33N 40°39' W 074°08'0 0.4
2017-Jan-15 21:33N 40°39' W 074°08'2 1.5
2017-Jan-15 20:34N 40°39' W 074°10'0 0.0
2017-Jan-15 19:34N 40°39' W 074°10'0 0.0
2017-Jan-15 18:34N 40°39' W 074°10'0 0.0
2017-Jan-15 17:34N 40°39' W 074°10'0 0.0
2017-Jan-15 16:31N 40°39' W 074°10'0 0.0
2017-Jan-15 15:34N 40°39' W 074°10'0 0.0
2017-Jan-15 14:34N 40°39' W 074°10'0 0.0
2017-Jan-15 13:34N 40°39' W 074°10'0 0.0
2017-Jan-15 12:22N 40°39' W 074°10'0 0.0
2017-Jan-15 11:34N 40°39' W 074°10'0 0.0
2017-Jan-15 10:34N 40°39' W 074°10'0 0.0
2017-Jan-15 09:27N 40°39' W 074°10'0 0.0
2017-Jan-15 08:33N 40°39' W 074°10'0 0.0
2017-Jan-15 07:34N 40°39' W 074°10'0 0.0
2017-Jan-15 06:28N 40°39' W 074°10'0 0.0
2017-Jan-15 05:34N 40°39' W 074°10'0 0.0
2017-Jan-15 04:34N 40°39' W 074°10'0 0.0
2017-Jan-15 03:34N 40°39' W 074°10'0 0.0
2017-Jan-15 02:30N 40°39' W 074°10'0 0.0
2017-Jan-15 01:15N 40°39' W 074°10'0 0.0
2017-Jan-15 00:30N 40°39' W 074°10'0 0.0
2017-Jan-14 23:33N 40°39' W 074°10'0 0.0
2017-Jan-14 22:33N 40°39' W 074°10'0 0.0
2017-Jan-14 21:33N 40°39' W 074°10'0 0.0
2017-Jan-14 20:33N 40°39' W 074°10'0 0.0
2017-Jan-14 19:33N 40°39' W 074°10'0 0.0
2017-Jan-14 18:33N 40°39' W 074°10'0 0.0
2017-Jan-14 17:30N 40°39' W 074°10'0 0.0
2017-Jan-14 16:33N 40°39' W 074°10'0 0.0
2017-Jan-14 15:33N 40°39' W 074°10'0 0.0
2017-Jan-14 14:33N 40°39' W 074°10'0 0.1
2017-Jan-14 13:33N 40°39' W 074°10'0 0.1
2017-Jan-14 12:31N 40°39' W 074°10'0 0.0
2017-Jan-14 11:31N 40°39' W 074°10'0 0.0
2017-Jan-14 10:31N 40°39' W 074°10'4 4.5
2017-Jan-14 09:33N 40°39' W 074°04'5 5.1
2017-Jan-14 08:33N 40°39' W 074°11'1 0.0
2017-Jan-13 19:31N 40°39' W 074°10'5 4.9
2017-Jan-13 18:34N 40°39' W 074°04'0 0.0
2017-Jan-13 17:32N 40°39' W 074°04'0 0.0
2017-Jan-13 16:32N 40°39' W 074°04'0 0.0
2017-Jan-13 15:32N 40°39' W 074°04'0 0.0
2017-Jan-13 14:32N 40°39' W 074°04'0 0.4
2017-Jan-13 13:33N 40°39' W 074°05'1 1.0
2017-Jan-13 12:31N 40°39' W 074°06'0 0.0
2017-Jan-13 11:32N 40°39' W 074°06'0 0.0
2017-Jan-13 10:32N 40°39' W 074°06'0 0.0
2017-Jan-13 09:32N 40°39' W 074°06'0 0.0
2017-Jan-13 08:32N 40°39' W 074°06'0 0.0
2017-Jan-13 07:32N 40°39' W 074°06'0 0.0
2017-Jan-13 06:29N 40°39' W 074°06'0 0.0
2017-Jan-13 05:32N 40°39' W 074°06'0 0.0
2017-Jan-13 04:32N 40°39' W 074°06'1 0.7
2017-Jan-13 03:31N 40°39' W 074°05'4 4.3
2017-Jan-13 02:33N 40°41' W 074°01'6 6.1
2017-Jan-13 01:31N 40°47' W 073°56'7 0.3
2017-Jan-12 02:13N 40°49' W 073°47'5 7.2
2017-Jan-12 01:33N 40°48' W 073°53'8 8.4
2017-Jan-12 00:33N 40°42' W 074°00'5 4.6
2017-Jan-11 23:33N 40°38' W 074°04'1 1.2
2017-Jan-11 22:29N 40°39' W 074°05'3 3.4
2017-Jan-11 21:33N 40°38' W 074°09'0 0.3
2017-Jan-11 20:06N 40°39' W 074°10'0 0.0
2017-Jan-11 19:30N 40°39' W 074°10'0 0.0
2017-Jan-11 18:30N 40°39' W 074°10'0 0.0
2017-Jan-11 17:12N 40°39' W 074°10'0 0.0
2017-Jan-11 16:30N 40°39' W 074°10'0 0.0
2017-Jan-11 15:33N 40°39' W 074°10'0 0.0
2017-Jan-11 14:24N 40°39' W 074°10'0 0.0
2017-Jan-11 13:33N 40°39' W 074°10'0 0.0
2017-Jan-11 12:33N 40°39' W 074°10'0 0.0
2017-Jan-11 11:33N 40°39' W 074°10'0 0.0
2017-Jan-11 10:33N 40°39' W 074°10'0 0.0
2017-Jan-11 09:33N 40°39' W 074°10'0 0.0
2017-Jan-11 08:33N 40°39' W 074°10'0 0.0
2017-Jan-11 07:33N 40°39' W 074°10'0 0.0
2017-Jan-11 06:33N 40°39' W 074°10'2 2.2
2017-Jan-11 05:33N 40°39' W 074°07'1 0.9
2017-Jan-11 04:32N 40°39' W 074°06'0 0.0
2017-Jan-11 03:32N 40°39' W 074°06'2 2.3
2017-Jan-11 02:33N 40°39' W 074°09'0 0.1
2017-Jan-11 01:33N 40°39' W 074°09'2 2.1
2017-Jan-11 00:32N 40°39' W 074°06'0 0.0
2017-Jan-10 23:32N 40°39' W 074°06'0 0.0
2017-Jan-10 22:32N 40°39' W 074°06'0 0.0
2017-Jan-10 21:32N 40°39' W 074°06'0 0.0
2017-Jan-10 20:32N 40°39' W 074°06'1 1.4
2017-Jan-10 19:34N 40°40' W 074°04'0 0.0
2017-Jan-10 18:31N 40°40' W 074°04'0 0.0
2017-Jan-10 17:33N 40°40' W 074°04'0 0.0
2017-Jan-10 16:30N 40°40' W 074°04'0 0.0
2017-Jan-10 15:33N 40°40' W 074°04'0 0.0
2017-Jan-10 14:33N 40°40' W 074°04'0 0.0
2017-Jan-10 13:26N 40°40' W 074°04'0 0.0
2017-Jan-10 12:33N 40°40' W 074°04'0 0.0
2017-Jan-10 11:30N 40°40' W 074°04'0 0.0
2017-Jan-10 10:30N 40°40' W 074°04'0 0.0
2017-Jan-10 09:33N 40°40' W 074°04'0 0.0
2017-Jan-10 08:33N 40°40' W 074°04'0 0.0
2017-Jan-10 07:33N 40°40' W 074°04'0 0.0
2017-Jan-10 06:33N 40°40' W 074°04'0 0.0
2017-Jan-10 05:24N 40°40' W 074°04'0 0.0
2017-Jan-10 04:33N 40°40' W 074°04'0 0.0
2017-Jan-10 03:33N 40°40' W 074°04'0 0.0
2017-Jan-10 02:33N 40°40' W 074°04'  

Dump ship's entire track history